Time;durP1;ratioP1;P1;durP2;ratioP2;P2;SDS_P1;SDS_P2;PMS_P1;PMS_P2;Temp;Humidity;BMP_temperature;BMP_pressure;BME280_temperature;BME280_humidity;BME280_pressure;Samples;Min_cycle;Max_cycle;Signal;HPM_P1;HPM_P2
2023/10/06 00:02:58;;;;;;;10.75;5.25;;;15.20;99.90;;;;;;4899528;29;20192;-68
2023/10/06 00:05:24;;;;;;;12.68;4.50;;;15.20;99.90;;;;;;4898778;29;20204;-68
2023/10/06 00:07:51;;;;;;;11.02;4.50;;;15.20;99.90;;;;;;4899885;29;20188;-67
2023/10/06 00:10:21;;;;;;;14.05;4.47;;;15.20;99.90;;;;;;4912763;29;20271;-68
2023/10/06 00:12:53;;;;;;;14.43;4.43;;;15.20;99.90;;;;;;4898089;29;20192;-69
2023/10/06 00:16:05;;;;;;;16.13;4.75;;;15.20;99.90;;;;;;4898226;29;20256;-68
2023/10/06 00:18:12;;;;;;;10.48;4.25;;;15.20;99.90;;;;;;4896477;29;20201;-66
2023/10/06 00:20:45;;;;;;;10.68;4.85;;;15.20;99.90;;;;;;4899260;29;20200;-66
2023/10/06 00:23:14;;;;;;;12.35;4.55;;;15.20;99.90;;;;;;4899054;29;20651;-67
2023/10/06 00:25:43;;;;;;;12.05;4.65;;;15.20;99.90;;;;;;4898202;29;20201;-66
2023/10/06 00:28:19;;;;;;;10.85;4.22;;;15.20;99.90;;;;;;4899171;29;20714;-66
2023/10/06 00:30:55;;;;;;;15.32;5.07;;;15.20;99.90;;;;;;4897839;29;20308;-67
2023/10/06 00:33:23;;;;;;;11.93;4.68;;;15.20;99.90;;;;;;4898556;29;20192;-67
2023/10/06 00:35:50;;;;;;;10.85;4.80;;;15.10;99.90;;;;;;4893640;29;20713;-67
2023/10/06 00:38:16;;;;;;;14.98;4.80;;;15.10;99.90;;;;;;4897989;29;20191;-68
2023/10/06 00:40:51;;;;;;;16.50;4.20;;;15.10;99.90;;;;;;4882417;29;20197;-68
2023/10/06 00:43:39;;;;;;;15.02;5.07;;;15.10;99.90;;;;;;4897543;29;20559;-67
2023/10/06 00:46:09;;;;;;;12.57;4.88;;;15.10;99.90;;;;;;4898531;29;20188;-66
2023/10/06 00:48:40;;;;;;;14.82;4.35;;;15.10;99.90;;;;;;4912223;29;20191;-66
2023/10/06 00:51:22;;;;;;;12.55;4.95;;;15.10;99.90;;;;;;4897647;29;20185;-67
2023/10/06 00:53:52;;;;;;;15.57;4.93;;;15.10;99.90;;;;;;4913449;29;20208;-69
2023/10/06 00:56:23;;;;;;;11.32;4.65;;;15.10;99.90;;;;;;4890569;29;20197;-68
2023/10/06 00:58:49;;;;;;;14.18;4.65;;;15.10;99.90;;;;;;4912635;29;20260;-66
2023/10/06 01:01:19;;;;;;;15.55;4.50;;;15.10;99.90;;;;;;4898315;29;20192;-65
2023/10/06 01:04:36;;;;;;;15.82;4.10;;;15.20;99.90;;;;;;4898884;29;20728;-66
2023/10/06 01:06:42;;;;;;;17.25;4.80;;;15.20;99.90;;;;;;4895812;29;20688;-67
2023/10/06 01:09:15;;;;;;;16.35;4.97;;;15.20;99.90;;;;;;4898301;29;20196;-68
2023/10/06 01:11:45;;;;;;;18.20;4.63;;;15.20;99.90;;;;;;4894884;29;20593;-68
2023/10/06 01:14:14;;;;;;;19.50;4.65;;;15.20;99.90;;;;;;4881243;29;20239;-67
2023/10/06 01:16:42;;;;;;;13.98;4.43;;;15.20;99.90;;;;;;4897466;29;20196;-67
2023/10/06 01:19:26;;;;;;;14.95;4.90;;;15.20;99.90;;;;;;4898464;29;20670;-65
2023/10/06 01:21:53;;;;;;;15.27;4.72;;;15.20;99.90;;;;;;4902511;29;20189;-67
2023/10/06 01:24:26;;;;;;;14.80;4.53;;;15.20;99.90;;;;;;4902208;29;20275;-68
2023/10/06 01:27:06;;;;;;;13.93;4.65;;;15.20;99.90;;;;;;4901090;29;20280;-67
2023/10/06 01:29:33;;;;;;;13.82;5.03;;;15.20;99.90;;;;;;4899784;29;20195;-66
2023/10/06 01:32:06;;;;;;;17.92;4.78;;;15.20;99.90;;;;;;4899781;29;20185;-68
2023/10/06 01:34:38;;;;;;;17.65;5.22;;;15.20;99.90;;;;;;4901647;29;20216;-67
2023/10/06 01:37:11;;;;;;;13.13;4.70;;;15.20;99.90;;;;;;4900150;29;20606;-67
2023/10/06 01:39:39;;;;;;;18.08;5.10;;;15.20;99.90;;;;;;4904723;29;20201;-67
2023/10/06 01:42:09;;;;;;;16.52;4.93;;;15.20;99.90;;;;;;4900713;29;20225;-66
2023/10/06 01:44:36;;;;;;;11.07;4.50;;;15.20;99.90;;;;;;4899111;29;20222;-68
2023/10/06 01:47:05;;;;;;;14.32;4.75;;;15.30;99.90;;;;;;4900643;29;20579;-67
2023/10/06 01:49:36;;;;;;;14.18;5.50;;;15.30;99.90;;;;;;4900248;29;20256;-67
2023/10/06 01:52:04;;;;;;;14.52;5.65;;;15.30;99.90;;;;;;4892945;29;20228;-67
2023/10/06 01:54:34;;;;;;;17.13;5.38;;;15.20;99.90;;;;;;4897906;29;20295;-68
2023/10/06 01:57:06;;;;;;;16.33;5.20;;;15.30;99.90;;;;;;4896517;29;20554;-68
2023/10/06 01:59:33;;;;;;;18.55;5.45;;;15.30;99.90;;;;;;4896578;29;20192;-66
2023/10/06 02:02:02;;;;;;;20.40;5.28;;;15.30;99.90;;;;;;4895906;29;20741;-66
2023/10/06 02:04:38;;;;;;;12.75;5.60;;;15.30;99.90;;;;;;4897721;29;20239;-67
2023/10/06 02:07:05;;;;;;;16.15;6.38;;;15.30;99.90;;;;;;4911900;29;20710;-67
2023/10/06 02:09:32;;;;;;;19.90;6.35;;;15.30;99.90;;;;;;4898187;29;20191;-66
2023/10/06 02:11:58;;;;;;;22.23;6.43;;;15.30;99.90;;;;;;4897439;29;20184;-66
2023/10/06 02:14:24;;;;;;;18.80;7.00;;;15.30;99.90;;;;;;4911089;29;20659;-67
2023/10/06 02:16:55;;;;;;;17.10;6.65;;;15.30;99.90;;;;;;4895588;29;20200;-67
2023/10/06 02:19:21;;;;;;;15.75;6.38;;;15.30;99.90;;;;;;4895549;29;20287;-67
2023/10/06 02:21:51;;;;;;;22.52;7.38;;;15.30;99.90;;;;;;4897264;29;20264;-65
2023/10/06 02:24:17;;;;;;;19.08;7.50;;;15.30;99.90;;;;;;4911453;29;20231;-65
2023/10/06 02:26:50;;;;;;;18.70;7.13;;;15.30;99.90;;;;;;4895741;29;20196;-67
2023/10/06 02:29:22;;;;;;;16.85;7.15;;;15.30;99.90;;;;;;4896330;29;20200;-66
2023/10/06 02:31:49;;;;;;;15.98;6.95;;;15.30;99.90;;;;;;4881142;29;20645;-66
2023/10/06 02:34:26;;;;;;;20.02;7.75;;;15.30;99.90;;;;;;4896838;29;20185;-67
2023/10/06 02:36:54;;;;;;;13.85;6.80;;;15.30;99.90;;;;;;4895779;29;20188;-66
2023/10/06 02:39:20;;;;;;;19.38;7.75;;;15.40;99.90;;;;;;4878467;29;20211;-67
2023/10/06 02:41:47;;;;;;;21.15;7.97;;;15.30;99.90;;;;;;4897170;29;20600;-67
2023/10/06 02:44:22;;;;;;;18.13;7.68;;;15.40;99.90;;;;;;4879674;29;20219;-68
2023/10/06 02:46:52;;;;;;;21.67;7.40;;;15.30;99.90;;;;;;4895525;29;20219;-67
2023/10/06 02:49:31;;;;;;;22.45;7.50;;;15.30;99.90;;;;;;4910471;29;20229;-67
2023/10/06 02:52:00;;;;;;;16.75;7.88;;;15.30;99.90;;;;;;4894799;29;20199;-66
2023/10/06 02:54:29;;;;;;;18.30;7.80;;;15.20;99.90;;;;;;4895643;29;20197;-65
2023/10/06 02:56:56;;;;;;;22.77;8.32;;;15.30;99.90;;;;;;4896781;29;20602;-68
2023/10/06 02:59:25;;;;;;;15.50;7.55;;;15.30;99.90;;;;;;4895803;29;20207;-67
2023/10/06 03:01:54;;;;;;;17.70;7.57;;;15.20;99.90;;;;;;4894877;29;20723;-67
2023/10/06 03:04:25;;;;;;;18.77;8.48;;;15.20;99.90;;;;;;4910829;29;20597;-67
2023/10/06 03:06:55;;;;;;;17.42;8.30;;;15.20;99.90;;;;;;4895388;29;20275;-67
2023/10/06 03:09:29;;;;;;;21.65;8.68;;;15.20;99.90;;;;;;4911491;29;20199;-67
2023/10/06 03:11:58;;;;;;;23.08;8.35;;;15.20;99.90;;;;;;4896544;29;20258;-68
2023/10/06 03:14:37;;;;;;;18.73;8.55;;;15.20;99.90;;;;;;4909805;29;20237;-67
2023/10/06 03:17:09;;;;;;;15.73;7.75;;;15.20;99.90;;;;;;4878790;29;20184;-69
2023/10/06 03:19:42;;;;;;;21.38;8.48;;;15.20;99.90;;;;;;4894358;29;20696;-67
2023/10/06 03:22:10;;;;;;;19.00;8.05;;;15.30;99.90;;;;;;4896574;29;20192;-69
2023/10/06 03:24:44;;;;;;;22.13;8.23;;;15.30;99.90;;;;;;4910302;29;20267;-66
2023/10/06 03:27:15;;;;;;;19.25;7.95;;;15.30;99.90;;;;;;4895501;29;20242;-68
2023/10/06 03:30:10;;;;;;;25.60;8.80;;;15.20;99.90;;;;;;4896124;29;20211;-68
2023/10/06 03:32:39;;;;;;;20.50;9.23;;;15.20;99.90;;;;;;4883060;29;20196;-68
2023/10/06 03:38:07;;;;;;;20.90;9.15;;;15.20;99.90;;;;;;4898451;29;20272;-67
2023/10/06 03:46:24;;;;;;;22.23;10.60;;;15.20;99.90;;;;;;4888686;29;20653;-67
2023/10/06 03:48:52;;;;;;;22.90;10.07;;;15.20;99.90;;;;;;4897904;29;20193;-68
2023/10/06 03:51:19;;;;;;;25.98;10.85;;;15.10;99.90;;;;;;4879492;29;20244;-69
2023/10/06 03:53:47;;;;;;;25.58;10.88;;;15.10;99.90;;;;;;4896616;29;20197;-69
2023/10/06 03:56:13;;;;;;;25.90;11.35;;;15.10;99.90;;;;;;4899827;29;20216;-71
2023/10/06 03:58:39;;;;;;;25.02;11.02;;;15.10;99.90;;;;;;4913172;29;20208;-68
2023/10/06 04:01:09;;;;;;;25.08;11.63;;;15.10;99.90;;;;;;4900105;29;20193;-69
2023/10/06 04:03:35;;;;;;;25.05;11.80;;;15.10;99.90;;;;;;4899340;29;20272;-69
2023/10/06 04:06:04;;;;;;;23.67;11.50;;;15.10;99.90;;;;;;4899584;29;20188;-69
2023/10/06 04:08:30;;;;;;;22.75;12.55;;;15.10;99.90;;;;;;4897951;29;20705;-68
2023/10/06 04:10:59;;;;;;;25.48;13.60;;;15.10;99.90;;;;;;4899759;29;20188;-69
2023/10/06 04:13:26;;;;;;;24.00;12.57;;;15.10;99.90;;;;;;4899044;29;20197;-69
2023/10/06 04:15:53;;;;;;;25.23;12.43;;;15.10;99.90;;;;;;4898819;29;20693;-69
2023/10/06 04:18:22;;;;;;;27.80;12.43;;;15.10;99.90;;;;;;4898443;29;20788;-69
2023/10/06 04:20:53;;;;;;;24.73;13.02;;;15.10;99.90;;;;;;4899574;29;20196;-67
2023/10/06 04:23:23;;;;;;;24.83;12.63;;;15.10;99.90;;;;;;4901878;29;20199;-70
2023/10/06 04:25:54;;;;;;;25.65;12.85;;;15.10;99.90;;;;;;4898318;29;20661;-69
2023/10/06 04:28:22;;;;;;;23.90;11.93;;;15.10;99.90;;;;;;4897669;29;20215;-69
2023/10/06 04:30:49;;;;;;;31.92;12.75;;;15.10;99.90;;;;;;4892043;29;20201;-70
2023/10/06 04:33:18;;;;;;;31.45;12.68;;;15.10;99.90;;;;;;4893411;29;20184;-71
2023/10/06 04:38:47;;;;;;;25.83;13.35;;;15.10;99.90;;;;;;4858941;29;20197;-68
2023/10/06 04:41:14;;;;;;;26.27;12.52;;;15.10;99.90;;;;;;4890545;29;20692;-69
2023/10/06 04:43:47;;;;;;;25.80;12.23;;;15.10;99.90;;;;;;4898434;29;20232;-68
2023/10/06 04:46:14;;;;;;;26.08;12.13;;;15.10;99.90;;;;;;4912569;29;20592;-70
2023/10/06 04:48:40;;;;;;;28.77;11.93;;;15.10;99.90;;;;;;4897570;29;20196;-69
2023/10/06 04:51:09;;;;;;;27.58;12.18;;;15.10;99.90;;;;;;4896203;29;20189;-69
2023/10/06 04:53:35;;;;;;;26.50;12.00;;;15.10;99.90;;;;;;4887947;29;20196;-68
2023/10/06 04:56:03;;;;;;;21.20;11.85;;;15.10;99.90;;;;;;4897784;29;20601;-71
2023/10/06 04:58:29;;;;;;;24.48;11.70;;;15.10;99.90;;;;;;4896548;29;20208;-70
2023/10/06 05:00:59;;;;;;;24.30;11.70;;;15.10;99.90;;;;;;4892612;29;20201;-69
2023/10/06 05:03:27;;;;;;;23.42;11.00;;;15.10;99.90;;;;;;4898409;29;20189;-69
2023/10/06 05:05:55;;;;;;;17.33;10.50;;;15.10;99.90;;;;;;4897264;29;20244;-68
2023/10/06 05:08:24;;;;;;;25.08;10.73;;;15.10;99.90;;;;;;4895717;29;20561;-69
2023/10/06 05:10:52;;;;;;;23.75;10.68;;;15.10;99.90;;;;;;4887140;29;20189;-69
2023/10/06 05:13:17;;;;;;;22.50;10.77;;;15.10;99.90;;;;;;4893570;29;20181;-67
2023/10/06 05:15:44;;;;;;;21.38;10.70;;;15.10;99.90;;;;;;4897336;29;20239;-68
2023/10/06 05:18:15;;;;;;;22.90;10.13;;;15.10;99.90;;;;;;4898597;29;20223;-69
2023/10/06 05:20:42;;;;;;;18.45;10.05;;;15.10;99.90;;;;;;4897368;29;20197;-66
2023/10/06 05:23:14;;;;;;;19.00;10.40;;;15.10;99.90;;;;;;4897407;29;20188;-69
2023/10/06 05:25:46;;;;;;;24.25;9.95;;;15.10;99.90;;;;;;4898495;29;20212;-69
2023/10/06 05:28:16;;;;;;;25.67;10.70;;;15.10;99.90;;;;;;4886669;29;20213;-67
2023/10/06 05:30:44;;;;;;;21.35;10.40;;;15.10;99.90;;;;;;4898224;29;20218;-68
2023/10/06 05:33:11;;;;;;;29.27;10.40;;;15.10;99.90;;;;;;4896067;29;20192;-70
2023/10/06 05:35:41;;;;;;;22.10;9.68;;;15.10;99.90;;;;;;4895154;29;20189;-68
2023/10/06 05:38:08;;;;;;;23.83;10.25;;;15.10;99.90;;;;;;4898462;29;20705;-68
2023/10/06 05:40:37;;;;;;;29.92;9.88;;;15.10;99.90;;;;;;4896439;29;20196;-71
2023/10/06 05:43:04;;;;;;;26.65;9.73;;;15.10;99.90;;;;;;4896816;29;20943;-67
2023/10/06 05:45:30;;;;;;;23.05;10.02;;;15.10;99.90;;;;;;4896778;29;20228;-70
2023/10/06 05:48:06;;;;;;;21.50;10.27;;;15.10;99.90;;;;;;4897845;29;20262;-69
2023/10/06 05:50:35;;;;;;;26.75;10.15;;;15.00;99.90;;;;;;4897571;29;20188;-72
2023/10/06 05:53:04;;;;;;;21.77;10.35;;;15.00;99.90;;;;;;4912164;29;20237;-67
2023/10/06 05:55:35;;;;;;;21.77;10.68;;;15.00;99.90;;;;;;4894949;29;20236;-67
2023/10/06 05:58:03;;;;;;;21.70;9.82;;;15.00;99.90;;;;;;4897428;29;20628;-69
2023/10/06 06:00:33;;;;;;;20.00;10.00;;;15.00;99.90;;;;;;4895946;29;20204;-68
2023/10/06 06:03:13;;;;;;;22.92;10.38;;;15.00;99.90;;;;;;4897384;29;20185;-66
2023/10/06 06:05:40;;;;;;;22.98;10.35;;;15.00;99.90;;;;;;4892149;29;20596;-69
2023/10/06 06:08:08;;;;;;;21.75;10.73;;;15.00;99.90;;;;;;4897151;29;20191;-70
2023/10/06 06:10:35;;;;;;;21.80;9.82;;;15.10;99.90;;;;;;4897264;29;20244;-69
2023/10/06 06:13:01;;;;;;;21.42;10.50;;;15.10;99.90;;;;;;4895262;29;20204;-69
2023/10/06 06:15:27;;;;;;;24.42;9.98;;;15.10;99.90;;;;;;4893835;29;20232;-70
2023/10/06 06:17:54;;;;;;;21.52;10.20;;;15.10;99.90;;;;;;4895675;29;20661;-71
2023/10/06 06:20:21;;;;;;;21.80;10.18;;;15.10;99.90;;;;;;4910892;29;20197;-68
2023/10/06 06:23:04;;;;;;;25.42;10.10;;;15.10;99.90;;;;;;4896858;29;20188;-65
2023/10/06 06:25:30;;;;;;;25.75;11.07;;;15.20;99.90;;;;;;4886370;29;20216;-68
2023/10/06 06:27:59;;;;;;;24.30;10.38;;;15.20;99.90;;;;;;4895664;29;20271;-70
2023/10/06 06:30:26;;;;;;;30.70;10.25;;;15.20;99.90;;;;;;4892514;29;20268;-69
2023/10/06 06:32:53;;;;;;;27.90;10.63;;;15.20;99.90;;;;;;4909340;29;20285;-68
2023/10/06 06:35:24;;;;;;;22.63;9.90;;;15.20;99.90;;;;;;4877635;29;20200;-69
2023/10/06 06:37:59;;;;;;;26.08;10.30;;;15.30;99.90;;;;;;4897889;29;20189;-68
2023/10/06 06:40:28;;;;;;;19.83;9.48;;;15.30;99.90;;;;;;4896979;29;20199;-67
2023/10/06 06:42:55;;;;;;;23.67;9.93;;;15.30;99.90;;;;;;4904224;29;20188;-68
2023/10/06 06:45:24;;;;;;;20.30;10.18;;;15.30;99.90;;;;;;4896490;29;20749;-69
2023/10/06 06:47:50;;;;;;;22.17;9.45;;;15.40;99.90;;;;;;4897045;29;20243;-68
2023/10/06 06:50:17;;;;;;;20.15;9.95;;;15.40;99.90;;;;;;4896384;29;20184;-66
2023/10/06 06:52:43;;;;;;;18.63;9.55;;;15.40;99.90;;;;;;4894306;29;20200;-67
2023/10/06 06:55:14;;;;;;;23.77;10.27;;;15.40;99.90;;;;;;4895271;29;20276;-64
2023/10/06 06:57:44;;;;;;;21.88;9.90;;;15.50;99.90;;;;;;4893107;29;20227;-67
2023/10/06 07:00:24;;;;;;;24.42;9.50;;;15.50;99.90;;;;;;4896187;29;20319;-67
2023/10/06 07:02:56;;;;;;;24.63;9.82;;;15.50;99.90;;;;;;4894636;29;20227;-65
2023/10/06 07:05:22;;;;;;;23.08;9.40;;;15.60;99.90;;;;;;4895025;29;20569;-65
2023/10/06 07:07:52;;;;;;;20.45;9.60;;;15.60;99.90;;;;;;4896104;29;20524;-65
2023/10/06 07:10:20;;;;;;;24.98;9.35;;;15.60;99.90;;;;;;4896711;29;20200;-64
2023/10/06 07:12:47;;;;;;;20.77;9.18;;;15.70;99.90;;;;;;4896277;29;20653;-69
2023/10/06 07:15:19;;;;;;;21.80;9.77;;;15.70;99.90;;;;;;4897316;29;20224;-69
2023/10/06 07:17:51;;;;;;;19.52;9.43;;;15.80;99.90;;;;;;4897849;29;20204;-66
2023/10/06 07:20:28;;;;;;;22.02;9.80;;;15.80;99.90;;;;;;4911658;29;20180;-64
2023/10/06 07:23:00;;;;;;;19.92;9.45;;;15.80;99.90;;;;;;4910900;29;20199;-65
2023/10/06 07:25:27;;;;;;;21.92;9.93;;;15.80;99.90;;;;;;4896215;29;20217;-68
2023/10/06 07:27:57;;;;;;;20.40;9.50;;;15.80;99.90;;;;;;4896737;29;20193;-67
2023/10/06 07:30:25;;;;;;;19.23;10.27;;;15.80;99.90;;;;;;4911812;29;20557;-66
2023/10/06 07:32:54;;;;;;;24.45;9.38;;;15.90;99.90;;;;;;4896764;29;20184;-69
2023/10/06 07:35:40;;;;;;;29.13;9.95;;;15.90;99.90;;;;;;4896979;29;20191;-68
2023/10/06 07:38:06;;;;;;;20.00;8.70;;;15.90;99.90;;;;;;4897181;29;20192;-68
2023/10/06 07:40:32;;;;;;;19.38;9.20;;;16.00;99.90;;;;;;4895999;29;20192;-67
2023/10/06 07:42:58;;;;;;;26.67;9.43;;;16.10;99.90;;;;;;4895369;29;20258;-71
2023/10/06 07:45:26;;;;;;;26.30;9.65;;;16.10;99.90;;;;;;4892573;29;20227;-68
2023/10/06 07:47:54;;;;;;;22.60;9.27;;;16.10;99.90;;;;;;4886548;29;20188;-67
2023/10/06 07:50:19;;;;;;;24.73;9.45;;;16.10;99.90;;;;;;4893224;29;20287;-68
2023/10/06 07:52:47;;;;;;;22.77;9.82;;;16.20;99.90;;;;;;4896244;29;20275;-69
2023/10/06 07:55:13;;;;;;;20.98;10.20;;;16.10;99.90;;;;;;4893909;29;20618;-68
2023/10/06 07:57:47;;;;;;;20.92;10.00;;;16.20;99.90;;;;;;4895766;29;20189;-67
2023/10/06 08:00:24;;;;;;;22.65;10.23;;;16.20;99.90;;;;;;4894717;29;20188;-68
2023/10/06 08:02:50;;;;;;;21.95;10.55;;;16.10;99.90;;;;;;4896565;29;20192;-66
2023/10/06 08:05:17;;;;;;;21.42;10.25;;;16.20;99.90;;;;;;4893231;29;20227;-67
2023/10/06 08:07:44;;;;;;;22.60;9.95;;;16.10;99.90;;;;;;4892599;29;20189;-69
2023/10/06 08:10:14;;;;;;;22.08;10.35;;;16.20;99.90;;;;;;4895167;29;20199;-67
2023/10/06 08:12:50;;;;;;;21.42;10.90;;;16.20;99.90;;;;;;4891681;29;20190;-66
2023/10/06 08:15:17;;;;;;;22.08;9.55;;;16.20;99.90;;;;;;4893205;29;20368;-67
2023/10/06 08:17:48;;;;;;;20.65;10.35;;;16.30;99.90;;;;;;4890197;29;20657;-65
2023/10/06 08:20:17;;;;;;;19.88;9.77;;;16.30;99.90;;;;;;4897707;29;20204;-66
2023/10/06 08:22:46;;;;;;;24.45;9.85;;;16.40;99.90;;;;;;4897466;29;20291;-68
2023/10/06 08:25:16;;;;;;;21.67;10.13;;;16.40;99.90;;;;;;4898837;29;20701;-68
2023/10/06 08:27:43;;;;;;;21.98;10.45;;;16.50;99.90;;;;;;4895471;29;20319;-67
2023/10/06 08:30:16;;;;;;;28.08;10.38;;;16.60;99.90;;;;;;4898473;29;20193;-67
2023/10/06 08:32:44;;;;;;;22.25;10.32;;;16.60;99.90;;;;;;4887065;29;20271;-68
2023/10/06 08:35:14;;;;;;;21.88;10.15;;;16.70;99.90;;;;;;4884763;29;20216;-69
2023/10/06 08:37:44;;;;;;;24.23;10.15;;;16.70;99.90;;;;;;4896575;29;20188;-66
2023/10/06 08:40:16;;;;;;;24.00;10.00;;;16.80;99.90;;;;;;4891550;29;20761;-66
2023/10/06 08:42:46;;;;;;;22.38;10.10;;;16.80;99.90;;;;;;4894973;29;20185;-67
2023/10/06 08:45:15;;;;;;;27.58;9.85;;;16.80;99.90;;;;;;4891301;29;20220;-68
2023/10/06 08:47:41;;;;;;;22.20;9.88;;;16.90;99.90;;;;;;4895620;29;20561;-69
2023/10/06 08:50:07;;;;;;;22.75;9.50;;;17.00;99.90;;;;;;4894515;29;20197;-68
2023/10/06 08:52:36;;;;;;;23.33;9.65;;;17.10;99.90;;;;;;4897925;29;20231;-67
2023/10/06 08:55:03;;;;;;;26.52;9.15;;;17.10;99.90;;;;;;4895932;29;20192;-66
2023/10/06 08:57:31;;;;;;;19.98;9.07;;;17.20;99.90;;;;;;4893690;29;20189;-66
2023/10/06 08:59:57;;;;;;;20.15;9.30;;;17.30;99.90;;;;;;4895671;29;20199;-68
2023/10/06 09:02:25;;;;;;;27.17;10.35;;;17.40;99.90;;;;;;4898736;29;20271;-68
2023/10/06 09:04:54;;;;;;;23.65;8.75;;;17.50;99.90;;;;;;4897057;29;20268;-68
2023/10/06 09:07:21;;;;;;;17.35;7.95;;;17.50;99.90;;;;;;4890593;29;20273;-66
2023/10/06 09:09:47;;;;;;;21.90;8.48;;;17.60;99.90;;;;;;4892067;29;20199;-67
2023/10/06 09:12:26;;;;;;;24.80;8.40;;;17.60;99.90;;;;;;4896507;29;20196;-68
2023/10/06 09:14:57;;;;;;;24.17;8.05;;;17.70;99.90;;;;;;4895683;29;20533;-65
2023/10/06 09:17:30;;;;;;;24.60;7.88;;;17.70;99.90;;;;;;4894637;29;20192;-67
2023/10/06 09:19:56;;;;;;;21.50;8.00;;;17.80;99.90;;;;;;4895475;29;20561;-66
2023/10/06 09:22:28;;;;;;;16.58;7.32;;;17.80;99.90;;;;;;4897911;29;20188;-68
2023/10/06 09:24:59;;;;;;;22.35;7.45;;;17.80;99.90;;;;;;4896569;29;20256;-67
2023/10/06 09:27:26;;;;;;;19.85;8.75;;;17.90;99.90;;;;;;4901954;29;20232;-68
2023/10/06 09:29:59;;;;;;;18.67;7.15;;;17.90;99.90;;;;;;4898075;29;20188;-67
2023/10/06 09:32:26;;;;;;;17.73;7.35;;;18.00;99.90;;;;;;4897036;29;20188;-69
2023/10/06 09:34:53;;;;;;;22.48;6.82;;;18.00;99.90;;;;;;4881993;29;20196;-69
2023/10/06 09:37:20;;;;;;;22.25;7.53;;;18.10;99.90;;;;;;4897053;29;20237;-70
2023/10/06 09:40:10;;;;;;;21.13;6.82;;;18.10;99.90;;;;;;4897128;29;20207;-70
2023/10/06 09:42:36;;;;;;;21.10;7.07;;;18.10;99.90;;;;;;4897399;29;20661;-69
2023/10/06 09:45:15;;;;;;;21.38;7.15;;;18.20;99.90;;;;;;4897489;29;20318;-69
2023/10/06 09:47:56;;;;;;;18.02;6.55;;;18.20;99.90;;;;;;4897581;29;20196;-69
2023/10/06 09:50:23;;;;;;;19.30;6.55;;;18.30;99.90;;;;;;4896103;29;20180;-70
2023/10/06 09:52:50;;;;;;;16.80;6.40;;;18.40;99.90;;;;;;4897440;29;20189;-70
2023/10/06 09:55:19;;;;;;;19.95;6.00;;;18.50;99.90;;;;;;4885873;29;20254;-69
2023/10/06 09:57:47;;;;;;;18.63;6.63;;;18.50;99.90;;;;;;4910581;29;20666;-69
2023/10/06 10:00:16;;;;;;;22.90;6.63;;;18.50;99.90;;;;;;4894703;29;20300;-70
2023/10/06 10:02:47;;;;;;;18.50;6.18;;;18.50;99.90;;;;;;4897330;29;20661;-69
2023/10/06 10:05:20;;;;;;;21.08;6.35;;;18.60;99.90;;;;;;4895721;29;20553;-71
2023/10/06 10:07:50;;;;;;;17.80;6.32;;;18.70;99.90;;;;;;4894904;29;20685;-69
2023/10/06 10:10:22;;;;;;;21.35;6.38;;;18.70;99.90;;;;;;4891431;29;20200;-69
2023/10/06 10:12:57;;;;;;;19.38;5.82;;;18.80;99.90;;;;;;4894372;29;20206;-70
2023/10/06 10:15:47;;;;;;;19.05;6.15;;;18.80;99.90;;;;;;4894796;29;20228;-68
2023/10/06 10:18:34;;;;;;;16.42;6.03;;;18.90;99.90;;;;;;4894449;29;20260;-69
2023/10/06 10:21:01;;;;;;;18.60;6.05;;;19.00;99.90;;;;;;4893107;29;20185;-69
2023/10/06 10:23:30;;;;;;;20.38;6.30;;;19.00;99.90;;;;;;4895645;29;20211;-69
2023/10/06 10:26:22;;;;;;;19.02;5.85;;;19.00;99.90;;;;;;4896788;29;20313;-69
2023/10/06 10:29:09;;;;;;;21.83;6.10;;;19.10;99.90;;;;;;4889351;29;20189;-70
2023/10/06 10:31:51;;;;;;;21.77;6.68;;;19.20;99.90;;;;;;4884678;29;20193;-70
2023/10/06 10:34:25;;;;;;;17.65;5.25;;;19.20;99.90;;;;;;4894279;29;20248;-70
2023/10/06 10:37:05;;;;;;;16.77;5.75;;;19.30;99.90;;;;;;4895061;29;20649;-70
2023/10/06 10:39:49;;;;;;;20.67;5.90;;;19.40;99.90;;;;;;4896847;29;20228;-68
2023/10/06 10:42:21;;;;;;;22.05;5.90;;;19.40;99.90;;;;;;4896303;29;20229;-69
2023/10/06 10:45:30;;;;;;;22.00;6.60;;;19.40;99.90;;;;;;4910765;29;20216;-70
2023/10/06 10:47:58;;;;;;;18.58;5.93;;;19.50;99.90;;;;;;4885503;29;20196;-69
2023/10/06 10:51:05;;;;;;;22.67;6.07;;;19.50;99.90;;;;;;4911060;29;20276;-68
2023/10/06 10:53:41;;;;;;;17.65;5.53;;;19.50;99.90;;;;;;4896670;29;20200;-69
2023/10/06 10:56:34;;;;;;;20.63;5.93;;;19.50;99.90;;;;;;4893831;29;20180;-70
2023/10/06 10:59:00;;;;;;;20.23;5.95;;;19.40;99.90;;;;;;4893568;29;20189;-70
2023/10/06 11:01:38;;;;;;;17.60;5.68;;;19.50;99.90;;;;;;4894487;29;20317;-69
2023/10/06 11:04:12;;;;;;;15.20;5.38;;;19.60;99.90;;;;;;4896738;29;20219;-70
2023/10/06 11:06:39;;;;;;;24.63;6.43;;;19.60;99.90;;;;;;4895780;29;20188;-69
2023/10/06 11:11:58;;;;;;;21.95;5.00;;;19.80;99.90;;;;;;4894560;29;20283;-69
2023/10/06 11:14:26;;;;;;;14.73;4.63;;;19.90;99.90;;;;;;4894551;29;20264;-69
2023/10/06 11:17:01;;;;;;;18.50;4.95;;;19.90;99.90;;;;;;4895929;29;20229;-69
2023/10/06 11:19:29;;;;;;;19.30;4.55;;;19.90;99.90;;;;;;4894249;29;20342;-70
2023/10/06 11:22:07;;;;;;;17.55;4.40;;;20.00;99.90;;;;;;4896314;29;20189;-70
2023/10/06 11:24:34;;;;;;;19.40;4.80;;;20.00;99.90;;;;;;4891850;29;20599;-69
2023/10/06 11:27:14;;;;;;;13.27;4.40;;;20.10;99.90;;;;;;4883208;29;20193;-72
2023/10/06 11:29:40;;;;;;;15.07;4.38;;;20.10;99.90;;;;;;4903618;29;20219;-71
2023/10/06 11:32:08;;;;;;;19.10;5.55;;;20.10;99.90;;;;;;4890315;29;20580;-69
2023/10/06 11:34:34;;;;;;;20.70;4.40;;;20.20;99.90;;;;;;4894793;29;20196;-69
2023/10/06 11:37:02;;;;;;;16.40;4.35;;;20.20;99.90;;;;;;4895837;29;20282;-69
2023/10/06 11:39:29;;;;;;;22.45;4.72;;;20.20;99.90;;;;;;4895910;29;20188;-71
2023/10/06 11:42:26;;;;;;;18.83;4.97;;;20.20;99.90;;;;;;4895554;29;20195;-74
2023/10/06 11:44:59;;;;;;;15.80;4.63;;;20.20;99.90;;;;;;4892997;29;20251;-74
2023/10/06 11:47:28;;;;;;;12.35;4.00;;;20.20;99.90;;;;;;4894634;29;20220;-72
2023/10/06 11:49:55;;;;;;;18.58;5.15;;;20.30;99.90;;;;;;4895606;29;20188;-75
2023/10/06 11:52:21;;;;;;;15.15;4.82;;;20.20;99.90;;;;;;4896334;29;20208;-73
2023/10/06 11:54:47;;;;;;;20.05;4.60;;;20.30;99.90;;;;;;4895238;29;20496;-72
2023/10/06 11:57:14;;;;;;;17.92;4.53;;;20.30;99.90;;;;;;4899572;29;20188;-76
2023/10/06 11:59:50;;;;;;;15.43;4.13;;;20.30;99.90;;;;;;4891986;29;20201;-77
2023/10/06 12:02:16;;;;;;;17.13;4.35;;;20.30;99.90;;;;;;4887419;29;20189;-75
2023/10/06 12:04:42;;;;;;;20.45;4.13;;;20.30;99.90;;;;;;4897204;29;20693;-74
2023/10/06 12:07:23;;;;;;;21.00;4.15;;;20.30;99.90;;;;;;4894613;29;20197;-74
2023/10/06 12:09:50;;;;;;;18.90;4.47;;;20.40;99.90;;;;;;4896313;29;20192;-73
2023/10/06 12:12:19;;;;;;;16.52;4.25;;;20.40;99.90;;;;;;4899504;29;20180;-74
2023/10/06 12:14:45;;;;;;;18.33;4.72;;;20.50;99.90;;;;;;4898662;29;20212;-73
2023/10/06 12:17:13;;;;;;;22.70;4.78;;;20.60;99.90;;;;;;4881459;29;20239;-73
2023/10/06 12:19:42;;;;;;;16.23;4.05;;;20.60;99.90;;;;;;4897741;29;20220;-73
2023/10/06 12:22:08;;;;;;;14.15;3.65;;;20.60;99.90;;;;;;4899732;29;20275;-74
2023/10/06 12:24:34;;;;;;;12.77;3.55;;;20.70;99.90;;;;;;4898255;29;20583;-74
2023/10/06 12:27:00;;;;;;;21.85;4.57;;;20.70;99.90;;;;;;4898587;29;20185;-72
2023/10/06 12:29:28;;;;;;;14.07;3.78;;;20.70;99.90;;;;;;4895023;29;20196;-73
2023/10/06 12:31:56;;;;;;;15.63;4.00;;;20.70;99.90;;;;;;4891240;29;20191;-74
2023/10/06 12:34:23;;;;;;;21.58;4.68;;;20.70;99.90;;;;;;4897835;29;20283;-72
2023/10/06 12:36:51;;;;;;;12.95;3.75;;;20.80;99.90;;;;;;4897446;29;20283;-73
2023/10/06 12:39:41;;;;;;;15.30;3.80;;;20.90;99.90;;;;;;4897884;29;20240;-73
2023/10/06 12:42:07;;;;;;;13.93;3.90;;;21.00;99.90;;;;;;4894155;29;20287;-72
2023/10/06 12:44:39;;;;;;;17.98;3.63;;;21.00;99.90;;;;;;4898738;29;20227;-73
2023/10/06 12:47:10;;;;;;;17.10;3.45;;;21.00;99.90;;;;;;4898087;29;20189;-73
2023/10/06 12:49:43;;;;;;;18.63;4.35;;;21.10;99.90;;;;;;4898302;29;20219;-72
2023/10/06 12:52:12;;;;;;;15.55;3.78;;;21.10;99.90;;;;;;4899633;29;20189;-73
2023/10/06 12:54:39;;;;;;;15.50;3.72;;;21.00;99.90;;;;;;4899685;29;20284;-74
2023/10/06 12:57:05;;;;;;;15.60;3.60;;;21.00;99.90;;;;;;4898845;29;20243;-77
2023/10/06 12:59:32;;;;;;;13.65;3.85;;;20.90;99.90;;;;;;4913591;29;20606;-74
2023/10/06 13:01:58;;;;;;;19.17;4.07;;;20.90;99.90;;;;;;4897825;29;20268;-73
2023/10/06 13:04:24;;;;;;;14.15;3.55;;;20.80;99.90;;;;;;4890525;29;20217;-75
2023/10/06 13:06:51;;;;;;;15.25;4.00;;;20.80;99.90;;;;;;4896460;29;20180;-73